createdAt,value
2018-04-13T00:00:52.761Z,52.30
2018-04-13T00:03:21.491Z,52.50
2018-04-13T00:05:50.645Z,52.60
2018-04-13T00:08:19.384Z,52.60
2018-04-13T00:10:48.879Z,52.80
2018-04-13T00:13:17.597Z,52.80
2018-04-13T00:15:46.326Z,52.90
2018-04-13T00:18:15.046Z,53.20
2018-04-13T00:20:44.303Z,53.40
2018-04-13T00:23:13.038Z,53.30
2018-04-13T00:25:42.531Z,53.50
2018-04-13T00:28:10.923Z,53.40
2018-04-13T00:30:40.092Z,53.80
2018-04-13T00:33:08.990Z,53.80
2018-04-13T00:35:37.756Z,54.00
2018-04-13T00:38:07.534Z,54.10
2018-04-13T00:40:36.292Z,54.30
2018-04-13T00:43:05.023Z,54.40
2018-04-13T00:45:33.749Z,54.60
2018-04-13T00:48:02.461Z,54.90
2018-04-13T00:50:31.177Z,55.00
2018-04-13T00:53:11.762Z,55.40
2018-04-13T00:55:40.502Z,55.40
2018-04-13T00:58:10.154Z,55.60
2018-04-13T01:00:38.883Z,55.80
2018-04-13T01:03:07.601Z,55.90
2018-04-13T01:05:37.085Z,56.10
2018-04-13T01:08:05.142Z,56.10
2018-04-13T01:10:33.888Z,56.40
2018-04-13T01:13:02.613Z,56.40
2018-04-13T01:15:31.341Z,56.60
2018-04-13T01:18:00.830Z,56.80
2018-04-13T01:20:29.563Z,57.30
2018-04-13T01:22:58.281Z,56.90
2018-04-13T01:25:27.029Z,57.10
2018-04-13T01:27:55.761Z,57.50
2018-04-13T01:30:24.487Z,57.40
2018-04-13T01:32:53.972Z,57.90
2018-04-13T01:35:22.680Z,57.80
2018-04-13T01:37:52.191Z,58.10
2018-04-13T01:40:21.700Z,58.20
2018-04-13T01:42:51.183Z,58.40
2018-04-13T01:45:19.912Z,58.40
2018-04-13T01:47:48.636Z,58.60
2018-04-13T01:50:17.353Z,58.70
2018-04-13T01:52:46.090Z,59.00
2018-04-13T01:55:14.804Z,59.10
2018-04-13T01:57:43.513Z,59.30
2018-04-13T02:00:12.244Z,59.60
2018-04-13T02:02:40.964Z,59.90
2018-04-13T02:05:09.683Z,60.10
2018-04-13T02:07:39.177Z,60.60
2018-04-13T02:10:07.898Z,60.50
2018-04-13T02:12:36.623Z,60.90
2018-04-13T02:15:05.373Z,61.10
2018-04-13T02:17:33.870Z,61.30
2018-04-13T02:20:02.597Z,61.70
2018-04-13T02:22:31.321Z,62.10
2018-04-13T02:25:00.806Z,62.70
2018-04-13T02:27:29.538Z,62.60
2018-04-13T02:29:58.247Z,62.90
2018-04-13T02:32:26.980Z,63.10
2018-04-13T02:34:56.475Z,63.60
2018-04-13T02:37:25.197Z,63.50
2018-04-13T02:39:53.926Z,64.20
2018-04-13T02:42:22.645Z,64.30
2018-04-13T02:44:51.360Z,64.60
2018-04-13T02:47:20.092Z,65.00
2018-04-13T02:49:48.838Z,65.30
2018-04-13T02:52:17.337Z,65.50
2018-04-13T02:54:46.155Z,66.00
2018-04-13T02:57:14.874Z,66.10
2018-04-13T02:59:44.354Z,66.70
2018-04-13T03:02:13.321Z,66.60
2018-04-13T03:04:42.039Z,67.10
2018-04-13T03:07:10.757Z,67.20
2018-04-13T03:09:40.243Z,67.80
2018-04-13T03:12:08.966Z,67.90
2018-04-13T03:14:37.726Z,68.30
2018-04-13T03:17:06.441Z,68.50
2018-04-13T03:19:35.153Z,68.60
2018-04-13T03:22:03.870Z,69.00
2018-04-13T03:24:32.573Z,69.30
2018-04-13T03:27:01.295Z,69.40
2018-04-13T03:29:30.834Z,69.60
2018-04-13T03:31:59.558Z,70.40
2018-04-13T03:34:28.273Z,71.20
2018-04-13T03:36:56.991Z,70.70
2018-04-13T03:39:25.747Z,71.10
2018-04-13T03:41:54.069Z,71.40
2018-04-13T03:44:22.461Z,72.00
2018-04-13T03:46:51.181Z,72.20
2018-04-13T03:49:20.670Z,73.40
2018-04-13T03:51:49.384Z,73.30
2018-04-13T03:54:18.109Z,73.70
2018-04-13T03:56:46.829Z,74.20
2018-04-13T03:59:15.546Z,74.60
2018-04-13T04:01:44.265Z,74.80
2018-04-13T04:04:12.990Z,76.40
2018-04-13T04:06:41.714Z,76.10
2018-04-13T04:09:10.207Z,76.60
2018-04-13T04:11:38.936Z,76.80
2018-04-13T04:14:06.992Z,77.20
2018-04-13T04:16:36.096Z,77.60
2018-04-13T04:19:04.808Z,78.30
2018-04-13T04:21:44.841Z,78.80
2018-04-13T04:24:25.564Z,79.80
2018-04-13T04:26:54.445Z,79.80
2018-04-13T04:29:24.545Z,80.70
2018-04-13T04:31:53.267Z,80.70
2018-04-13T04:34:23.386Z,81.40
2018-04-13T04:36:51.770Z,81.50
2018-04-13T04:39:20.485Z,82.70
2018-04-13T04:41:49.197Z,83.30
2018-04-13T04:44:17.910Z,84.00
2018-04-13T04:46:47.385Z,85.50
2018-04-13T04:49:16.095Z,85.40
2018-04-13T04:51:45.577Z,86.40
2018-04-13T04:54:14.290Z,86.40
2018-04-13T04:56:43.777Z,86.90
2018-04-13T04:59:13.106Z,87.00
2018-04-13T05:01:43.720Z,88.10
2018-04-13T05:04:12.434Z,88.10
2018-04-13T05:06:42.447Z,88.80
2018-04-13T05:09:11.937Z,89.10
2018-04-13T05:11:40.647Z,89.10
2018-04-13T05:14:10.316Z,90.20
2018-04-13T05:16:39.035Z,90.20
2018-04-13T05:19:08.513Z,90.80
2018-04-13T05:21:37.829Z,90.80
2018-04-13T05:24:06.396Z,90.90
2018-04-13T05:26:35.114Z,90.80
2018-04-13T05:29:03.510Z,90.80
2018-04-13T05:31:32.229Z,90.80
2018-04-13T05:34:00.943Z,90.90
2018-04-13T05:36:29.661Z,91.10
2018-04-13T05:38:59.156Z,91.40
2018-04-13T05:41:28.883Z,91.40
2018-04-13T05:43:57.609Z,91.30
2018-04-13T05:46:26.312Z,91.20
2018-04-13T05:48:55.025Z,91.20
2018-04-13T05:51:23.776Z,91.40
2018-04-13T05:53:52.477Z,91.80
2018-04-13T05:56:21.197Z,91.70
2018-04-13T05:58:50.706Z,92.10
2018-04-13T06:01:20.199Z,92.70
2018-04-13T06:03:48.912Z,92.70
2018-04-13T06:06:17.649Z,93.20
2018-04-13T06:08:46.370Z,93.10
2018-04-13T06:11:15.982Z,93.20
2018-04-13T06:13:45.466Z,93.20
2018-04-13T06:16:14.186Z,93.20
2018-04-13T06:18:43.857Z,93.80
2018-04-13T06:21:12.249Z,93.50
2018-04-13T06:23:40.972Z,93.80
2018-04-13T06:26:10.665Z,94.50
2018-04-13T06:28:40.141Z,94.30
2018-04-13T06:31:08.852Z,94.40
2018-04-13T06:33:37.553Z,94.40
2018-04-13T06:36:07.030Z,94.80
2018-04-13T06:38:35.751Z,94.80
2018-04-13T06:41:05.220Z,95.30
2018-04-13T06:43:33.932Z,95.30
2018-04-13T06:46:03.081Z,95.40
2018-04-13T06:48:31.803Z,95.40
2018-04-13T06:51:01.137Z,95.50
2018-04-13T06:53:29.841Z,96.00
2018-04-13T06:55:58.291Z,96.10
2018-04-13T06:58:27.793Z,96.10
2018-04-13T07:00:57.270Z,96.00
2018-04-13T07:03:25.986Z,96.00
2018-04-13T07:05:55.466Z,96.60
2018-04-13T07:08:23.877Z,96.60
2018-04-13T07:10:52.764Z,96.40
2018-04-13T07:13:22.254Z,96.40
2018-04-13T07:15:50.973Z,96.40
2018-04-13T07:18:20.445Z,96.50
2018-04-13T07:20:49.159Z,96.50
2018-04-13T07:23:18.633Z,96.70
2018-04-13T07:25:47.343Z,96.70
2018-04-13T07:28:16.133Z,96.90
2018-04-13T07:30:45.606Z,97.20
2018-04-13T07:33:14.322Z,97.30
2018-04-13T07:35:48.370Z,97.60
2018-04-13T07:38:17.077Z,97.60
2018-04-13T07:40:46.010Z,97.50
2018-04-13T07:43:14.708Z,97.50
2018-04-13T07:45:44.214Z,97.10
2018-04-13T07:48:13.690Z,96.90
2018-04-13T07:50:42.402Z,96.90
2018-04-13T07:53:11.880Z,96.90
2018-04-13T07:55:40.583Z,96.90
2018-04-13T07:58:09.296Z,96.50
2018-04-13T08:00:38.773Z,96.50
2018-04-13T08:03:07.153Z,96.50
2018-04-13T08:05:35.849Z,96.50
2018-04-13T08:08:04.584Z,96.70
2018-04-13T08:10:33.310Z,96.90
2018-04-13T08:13:02.018Z,96.40
2018-04-13T08:15:31.505Z,96.50
2018-04-13T08:18:00.218Z,96.50
2018-04-13T08:20:29.373Z,96.80
2018-04-13T08:22:58.086Z,96.70
2018-04-13T08:25:26.806Z,97.00
2018-04-13T08:27:55.513Z,96.80
2018-04-13T08:30:24.265Z,96.70
2018-04-13T08:32:53.173Z,96.70
2018-04-13T08:35:22.062Z,96.30
2018-04-13T08:37:50.774Z,96.20
2018-04-13T08:40:19.526Z,96.00
2018-04-13T08:42:48.808Z,95.60
2018-04-13T08:45:17.688Z,95.60
2018-04-13T08:47:46.072Z,95.80
2018-04-13T08:50:14.790Z,95.60
2018-04-13T08:52:44.269Z,95.30
2018-04-13T08:55:12.980Z,95.30
2018-04-13T08:57:42.349Z,94.40
2018-04-13T09:00:10.730Z,94.40
2018-04-13T09:02:39.444Z,94.00
2018-04-13T09:05:08.929Z,93.60
2018-04-13T09:07:37.642Z,93.60
2018-04-13T09:10:07.122Z,93.00
2018-04-13T09:12:35.826Z,93.00
2018-04-13T09:15:04.649Z,92.20
2018-04-13T09:17:33.362Z,92.10
2018-04-13T09:20:02.077Z,91.70
2018-04-13T09:22:30.803Z,91.40
2018-04-13T09:24:59.507Z,91.00
2018-04-13T09:27:28.221Z,91.10
2018-04-13T09:29:56.933Z,91.20
2018-04-13T09:32:25.646Z,91.50
2018-04-13T09:34:54.793Z,91.80
2018-04-13T09:37:23.510Z,91.80
2018-04-13T09:39:52.233Z,91.80
2018-04-13T09:42:20.950Z,91.80
2018-04-13T09:44:49.669Z,91.80
2018-04-13T09:47:18.384Z,91.80
2018-04-13T09:49:47.982Z,91.90
2018-04-13T09:52:17.490Z,91.70
2018-04-13T09:54:46.970Z,91.70
2018-04-13T09:57:15.720Z,91.70
2018-04-13T09:59:45.138Z,91.50
2018-04-13T10:02:19.361Z,91.50
2018-04-13T10:04:47.889Z,91.60
2018-04-13T10:07:17.370Z,91.60
2018-04-13T10:09:46.910Z,91.60
2018-04-13T10:12:15.622Z,91.60
2018-04-13T10:14:44.339Z,91.70
2018-04-13T10:17:12.756Z,91.90
2018-04-13T10:19:42.237Z,92.20
2018-04-13T10:22:10.948Z,92.20
2018-04-13T10:24:40.426Z,92.10
2018-04-13T10:27:09.135Z,92.10
2018-04-13T10:29:37.842Z,92.40
2018-04-13T10:32:06.562Z,93.10
2018-04-13T10:34:35.278Z,94.30
2018-04-13T10:37:03.998Z,94.50
2018-04-13T10:39:33.472Z,96.10
2018-04-13T10:42:02.196Z,96.10
2018-04-13T10:44:30.916Z,96.90
2018-04-13T10:46:59.625Z,98.60
2018-04-13T10:49:28.346Z,98.40
2018-04-13T10:51:57.831Z,98.40
2018-04-13T10:54:27.547Z,98.40
2018-04-13T10:56:56.270Z,98.50
2018-04-13T10:59:24.989Z,98.40
2018-04-13T11:01:53.709Z,98.30
2018-04-13T11:04:22.432Z,98.30
2018-04-13T11:06:51.381Z,98.20
2018-04-13T11:09:20.095Z,98.10
2018-04-13T11:11:49.584Z,98.70
2018-04-13T11:14:18.073Z,98.70
2018-04-13T11:16:47.564Z,98.90
2018-04-13T11:19:16.288Z,98.70
2018-04-13T11:21:46.382Z,98.50
2018-04-13T11:24:15.096Z,98.50
2018-04-13T11:26:43.813Z,98.40
2018-04-13T11:29:12.532Z,97.90
2018-04-13T11:31:41.250Z,97.50
2018-04-13T11:34:10.733Z,97.50
2018-04-13T11:36:39.215Z,97.50
2018-04-13T11:39:07.926Z,96.70
2018-04-13T11:41:37.457Z,97.50
2018-04-13T11:44:06.319Z,97.50
2018-04-13T11:46:35.802Z,97.40
2018-04-13T11:49:04.188Z,97.40
2018-04-13T11:51:32.906Z,97.70
2018-04-13T11:54:02.394Z,93.50
2018-04-13T11:56:31.104Z,93.50
2018-04-13T11:58:59.814Z,93.00
2018-04-13T12:01:28.298Z,93.20
2018-04-13T12:03:57.013Z,93.60
2018-04-13T12:06:25.391Z,94.00
2018-04-13T12:08:54.130Z,94.30
2018-04-13T12:11:22.857Z,94.20
2018-04-13T12:13:51.586Z,94.10
2018-04-13T12:16:21.061Z,94.40
2018-04-13T12:18:49.783Z,94.40
2018-04-13T12:21:19.258Z,95.00
2018-04-13T12:23:48.701Z,94.90
2018-04-13T12:26:18.180Z,94.60
2018-04-13T12:28:46.904Z,94.60
2018-04-13T12:31:15.391Z,94.70
2018-04-13T12:33:44.644Z,94.70
2018-04-13T12:36:13.364Z,94.70
2018-04-13T12:38:42.857Z,94.70
2018-04-13T12:41:12.345Z,94.90
2018-04-13T12:43:41.057Z,94.90
2018-04-13T12:46:10.564Z,95.10
2018-04-13T12:48:40.040Z,95.40
2018-04-13T12:51:08.838Z,95.40
2018-04-13T12:53:37.397Z,95.60
2018-04-13T12:56:05.649Z,95.50
2018-04-13T12:58:34.470Z,95.70
2018-04-13T13:01:03.194Z,95.70
2018-04-13T13:03:32.682Z,95.80
2018-04-13T13:06:01.399Z,95.80
2018-04-13T13:08:30.870Z,95.40
2018-04-13T13:10:59.594Z,95.40
2018-04-13T13:13:30.077Z,90.50
2018-04-13T13:15:58.790Z,90.50
2018-04-13T13:18:27.268Z,89.30
2018-04-13T13:20:55.753Z,87.80
2018-04-13T13:23:24.454Z,85.30
2018-04-13T13:25:53.929Z,83.50
2018-04-13T13:28:22.616Z,83.40
2018-04-13T13:30:51.327Z,81.30
2018-04-13T13:33:20.805Z,74.60
2018-04-13T13:35:49.529Z,74.40
2018-04-13T13:38:19.002Z,71.20
2018-04-13T13:40:47.700Z,71.20
2018-04-13T13:43:16.413Z,70.00
2018-04-13T13:45:46.203Z,67.20
2018-04-13T13:48:14.922Z,67.20
2018-04-13T13:50:43.644Z,66.00
2018-04-13T13:53:12.382Z,64.20
2018-04-13T13:55:41.259Z,64.30
2018-04-13T13:58:09.978Z,63.30
2018-04-13T14:00:38.449Z,62.10
2018-04-13T14:03:07.919Z,61.20
2018-04-13T14:05:36.630Z,61.10
2018-04-13T14:08:06.109Z,62.10
2018-04-13T14:10:34.834Z,62.00
2018-04-13T14:13:04.308Z,61.10
2018-04-13T14:15:33.021Z,60.80
2018-04-13T14:18:02.498Z,61.10
2018-04-13T14:20:31.207Z,61.10
2018-04-13T14:22:59.913Z,62.00
2018-04-13T14:25:29.052Z,62.40
2018-04-13T14:27:57.757Z,62.30
2018-04-13T14:30:27.262Z,63.50
2018-04-13T14:32:56.140Z,63.40
2018-04-13T14:35:24.867Z,64.00
2018-04-13T14:37:54.354Z,66.30
2018-04-13T14:40:23.065Z,66.20
2018-04-13T14:42:52.548Z,68.20
2018-04-13T14:45:21.260Z,68.10
2018-04-13T14:47:50.733Z,68.70
2018-04-13T14:50:19.437Z,68.60
2018-04-13T14:52:48.137Z,68.20
2018-04-13T14:55:17.625Z,69.10
2018-04-13T14:57:46.517Z,69.10
2018-04-13T15:00:15.244Z,69.30
2018-04-13T15:02:43.961Z,69.70
2018-04-13T15:05:12.670Z,70.40
2018-04-13T15:07:41.380Z,71.40
2018-04-13T15:10:10.865Z,77.90
2018-04-13T15:12:39.581Z,77.90
2018-04-13T15:15:09.057Z,90.40
2018-04-13T15:17:37.768Z,90.40
2018-04-13T15:20:07.278Z,93.80
2018-04-13T15:22:36.765Z,96.30
2018-04-13T15:25:05.249Z,96.30
2018-04-13T15:27:33.970Z,97.90
2018-04-13T15:30:02.686Z,99.90
2018-04-13T15:32:32.167Z,99.90
2018-04-13T15:35:01.653Z,99.90
2018-04-13T15:37:31.162Z,99.90
2018-04-13T15:40:00.646Z,99.90
2018-04-13T15:42:29.364Z,99.90
2018-04-13T15:44:58.081Z,99.90
2018-04-13T15:47:26.828Z,99.90
2018-04-13T15:49:56.311Z,99.90
2018-04-13T15:52:25.013Z,99.90
2018-04-13T15:54:54.498Z,99.90
2018-04-13T15:57:23.254Z,99.90
2018-04-13T15:59:51.741Z,99.90
2018-04-13T16:02:20.452Z,99.90
2018-04-13T16:04:49.161Z,99.90
2018-04-13T16:07:17.865Z,99.90
2018-04-13T16:09:48.147Z,99.90
2018-04-13T16:14:59.925Z,99.90
2018-04-13T16:17:29.269Z,99.90
2018-04-13T16:19:57.985Z,99.90
2018-04-13T16:22:27.469Z,99.90
2018-04-13T16:24:56.168Z,99.90
2018-04-13T16:27:24.869Z,99.90
2018-04-13T16:29:54.340Z,99.90
2018-04-13T16:32:23.040Z,99.90
2018-04-13T16:34:51.757Z,99.90
2018-04-13T16:37:21.248Z,99.90
2018-04-13T16:39:50.389Z,99.90
2018-04-13T16:42:19.288Z,99.90
2018-04-13T16:44:47.996Z,99.90
2018-04-13T16:47:16.704Z,99.90
2018-04-13T16:49:45.415Z,99.90
2018-04-13T16:52:14.928Z,99.90
2018-04-13T16:54:44.399Z,99.90
2018-04-13T16:57:13.117Z,99.90
2018-04-13T16:59:42.597Z,99.90
2018-04-13T17:02:11.317Z,99.90
2018-04-13T17:04:40.820Z,99.90
2018-04-13T17:07:10.304Z,99.90
2018-04-13T17:09:39.800Z,99.90
2018-04-13T17:12:08.518Z,99.90
2018-04-13T17:14:37.237Z,99.90
2018-04-13T17:17:06.212Z,99.90
2018-04-13T17:19:48.286Z,99.90
2018-04-13T17:22:17.021Z,99.90
2018-04-13T17:24:45.736Z,99.90
2018-04-13T17:27:14.782Z,99.90
2018-04-13T17:29:43.490Z,99.90
2018-04-13T17:32:12.200Z,99.90
2018-04-13T17:34:40.916Z,99.90
2018-04-13T17:37:10.398Z,99.90
2018-04-13T17:39:41.568Z,99.90
2018-04-13T17:42:11.058Z,99.90
2018-04-13T17:44:40.481Z,99.90
2018-04-13T17:47:09.945Z,99.90
2018-04-13T17:49:39.390Z,99.90
2018-04-13T17:52:08.906Z,99.90
2018-04-13T17:54:38.377Z,99.90
2018-04-13T17:57:07.090Z,99.90
2018-04-13T17:59:36.609Z,99.90
2018-04-13T18:02:06.099Z,99.90
2018-04-13T18:04:35.590Z,99.90
2018-04-13T18:07:04.307Z,99.90
2018-04-13T18:09:33.087Z,99.90
2018-04-13T18:12:02.577Z,99.90
2018-04-13T18:14:31.964Z,99.90
2018-04-13T18:17:00.359Z,99.90
2018-04-13T18:19:29.085Z,99.90
2018-04-13T18:21:57.801Z,99.90
2018-04-13T18:24:26.515Z,99.90
2018-04-13T18:26:55.223Z,99.90
2018-04-13T18:29:26.217Z,99.90
2018-04-13T18:31:54.953Z,99.90
2018-04-13T18:34:23.683Z,99.90
2018-04-13T18:36:52.417Z,99.90
2018-04-13T18:39:21.154Z,99.90
2018-04-13T18:41:49.873Z,99.90
2018-04-13T18:44:18.607Z,99.90
2018-04-13T18:46:48.978Z,99.90
2018-04-13T18:49:17.690Z,99.90
2018-04-13T18:51:46.432Z,99.90
2018-04-13T18:54:16.085Z,99.90
2018-04-13T18:56:44.826Z,99.90
2018-04-13T18:59:13.561Z,99.90
2018-04-13T19:01:42.264Z,99.90
2018-04-13T19:04:10.965Z,99.90
2018-04-13T19:06:40.441Z,99.90
2018-04-13T19:09:08.808Z,99.90
2018-04-13T19:11:37.530Z,99.90
2018-04-13T19:14:07.136Z,99.90
2018-04-13T19:16:36.613Z,99.90
2018-04-13T19:19:05.038Z,99.90
2018-04-13T19:21:34.533Z,99.90
2018-04-13T19:24:04.038Z,99.90
2018-04-13T19:26:33.517Z,99.90
2018-04-13T19:29:02.247Z,99.90
2018-04-13T19:31:31.729Z,99.90
2018-04-13T19:34:01.234Z,99.90
2018-04-13T19:36:30.732Z,99.90
2018-04-13T19:38:59.143Z,99.90
2018-04-13T19:41:27.873Z,99.90
2018-04-13T19:43:56.584Z,99.90
2018-04-13T19:46:25.291Z,99.90
2018-04-13T19:48:54.778Z,99.90
2018-04-13T19:51:23.501Z,99.90
2018-04-13T19:53:52.229Z,99.90
2018-04-13T19:56:20.962Z,99.90
2018-04-13T19:58:50.506Z,99.90
2018-04-13T20:01:19.221Z,99.90
2018-04-13T20:03:47.630Z,99.90
2018-04-13T20:06:16.527Z,99.90
2018-04-13T20:08:46.009Z,99.90
2018-04-13T20:11:14.729Z,99.90
2018-04-13T20:13:44.213Z,99.90
2018-04-13T20:16:12.267Z,99.90
2018-04-13T20:18:40.984Z,99.90
2018-04-13T20:21:10.471Z,99.90
2018-04-13T20:23:39.193Z,99.90
2018-04-13T20:26:07.910Z,99.90
2018-04-13T20:28:36.423Z,99.90
2018-04-13T20:31:05.149Z,99.90
2018-04-13T20:33:33.903Z,99.90
2018-04-13T20:36:02.625Z,99.90
2018-04-13T20:38:31.365Z,99.90
2018-04-13T20:41:00.290Z,99.90
2018-04-13T20:43:29.781Z,99.90
2018-04-13T20:45:58.499Z,99.90
2018-04-13T20:48:27.973Z,99.90
2018-04-13T20:50:56.682Z,99.90
2018-04-13T20:53:26.149Z,99.90
2018-04-13T20:55:54.565Z,99.90
2018-04-13T20:58:24.062Z,99.90
2018-04-13T21:00:52.782Z,99.90
2018-04-13T21:03:21.174Z,99.90
2018-04-13T21:05:49.557Z,99.90
2018-04-13T21:08:18.273Z,99.90
2018-04-13T21:10:47.516Z,99.90
2018-04-13T21:13:17.000Z,99.90
2018-04-13T21:15:46.484Z,99.90
2018-04-13T21:18:15.215Z,99.90
2018-04-13T21:20:43.938Z,99.90
2018-04-13T21:23:12.652Z,99.90
2018-04-13T21:25:41.366Z,99.90
2018-04-13T21:28:10.849Z,99.90
2018-04-13T21:30:39.580Z,99.90
2018-04-13T21:33:08.813Z,99.90
2018-04-13T21:35:37.602Z,99.90
2018-04-13T21:38:07.023Z,99.90
2018-04-13T21:40:35.733Z,99.90
2018-04-13T21:43:04.479Z,99.90
2018-04-13T21:45:33.198Z,99.90
2018-04-13T21:48:01.919Z,99.90
2018-04-13T21:50:30.718Z,99.90
2018-04-13T21:53:00.125Z,99.90
2018-04-13T21:55:29.237Z,99.90
2018-04-13T21:57:57.936Z,99.90
2018-04-13T22:00:26.637Z,99.90
2018-04-13T22:02:55.358Z,99.90
2018-04-13T22:05:24.836Z,99.90
2018-04-13T22:07:53.552Z,99.90
2018-04-13T22:10:22.266Z,99.90
2018-04-13T22:13:02.281Z,99.90
2018-04-13T22:15:31.009Z,99.90
2018-04-13T22:17:59.481Z,99.90
2018-04-13T22:20:28.209Z,99.90
2018-04-13T22:22:57.443Z,99.90
2018-04-13T22:25:26.152Z,99.90
2018-04-13T22:27:54.529Z,99.90
2018-04-13T22:30:23.245Z,99.90
2018-04-13T22:32:51.965Z,99.90
2018-04-13T22:35:20.670Z,99.90
2018-04-13T22:37:50.164Z,99.90
2018-04-13T22:40:18.872Z,99.90
2018-04-13T22:42:48.345Z,99.90
2018-04-13T22:45:17.070Z,99.90
2018-04-13T22:47:46.214Z,99.90
2018-04-13T22:50:14.958Z,99.90
2018-04-13T22:52:43.846Z,99.90
2018-04-13T22:55:13.333Z,99.90
2018-04-13T22:57:42.051Z,99.90
2018-04-13T23:00:10.117Z,99.90
2018-04-13T23:02:39.585Z,99.90
2018-04-13T23:05:08.297Z,99.90
2018-04-13T23:07:37.781Z,99.90
2018-04-13T23:10:06.495Z,99.90
2018-04-13T23:12:35.981Z,99.90
2018-04-13T23:15:04.361Z,99.90
2018-04-13T23:17:33.074Z,99.90
2018-04-13T23:20:02.558Z,99.90
2018-04-13T23:22:38.499Z,99.90
2018-04-13T23:25:07.218Z,99.90
2018-04-13T23:27:36.698Z,99.90
2018-04-13T23:30:04.741Z,99.90
2018-04-13T23:32:33.785Z,99.90
2018-04-13T23:35:02.482Z,99.90
2018-04-13T23:37:31.961Z,99.90
2018-04-13T23:40:00.681Z,99.90
2018-04-13T23:42:30.156Z,99.90
2018-04-13T23:44:58.859Z,99.90
2018-04-13T23:47:27.561Z,99.90
2018-04-13T23:49:57.033Z,99.90
2018-04-13T23:52:25.739Z,99.90
2018-04-13T23:54:55.216Z,99.90
2018-04-13T23:57:23.927Z,99.90
2018-04-13T23:59:52.633Z,99.90
